createdAt,value
2019-05-11T00:05:10.000Z,22.96
2019-05-11T00:15:11.000Z,22.94
2019-05-11T00:25:08.000Z,22.88
2019-05-11T00:35:09.000Z,22.84
2019-05-11T00:45:09.000Z,22.81
2019-05-11T00:55:08.000Z,22.79
2019-05-11T01:05:08.000Z,22.73
2019-05-11T01:15:08.000Z,22.7
2019-05-11T01:25:08.000Z,22.69
2019-05-11T01:35:08.000Z,22.64
2019-05-11T01:45:08.000Z,22.61
2019-05-11T01:55:08.000Z,22.55
2019-05-11T02:05:08.000Z,22.55
2019-05-11T02:25:08.000Z,22.49
2019-05-11T02:35:08.000Z,22.47
2019-05-11T02:45:08.000Z,22.59
2019-05-11T02:55:09.000Z,22.45
2019-05-11T03:05:08.000Z,22.41
2019-05-11T03:15:08.000Z,22.38
2019-05-11T03:25:08.000Z,22.35
2019-05-11T03:35:08.000Z,22.42
2019-05-11T03:45:08.000Z,22.32
2019-05-11T03:55:09.000Z,22.25
2019-05-11T04:05:08.000Z,22.21
2019-05-11T04:15:08.000Z,22.22
2019-05-11T04:25:08.000Z,22.2
2019-05-11T04:35:08.000Z,22.21
2019-05-11T04:45:09.000Z,22.18
2019-05-11T04:55:09.000Z,22.21
2019-05-11T05:05:08.000Z,22.22
2019-05-11T05:15:08.000Z,22.22
2019-05-11T05:25:09.000Z,22.23
2019-05-11T05:35:08.000Z,22.26
2019-05-11T05:45:08.000Z,22.27
2019-05-11T05:55:08.000Z,22.31
2019-05-11T06:05:08.000Z,22.34
2019-05-11T06:25:08.000Z,22.4
2019-05-11T06:35:08.000Z,22.44
2019-05-11T06:45:10.000Z,22.49
2019-05-11T06:55:09.000Z,22.49
2019-05-11T07:05:09.000Z,22.55
2019-05-11T07:15:09.000Z,22.58
2019-05-11T07:25:09.000Z,22.64
2019-05-11T07:35:12.000Z,22.71
2019-05-11T07:45:09.000Z,22.77
2019-05-11T07:55:10.000Z,22.84
2019-05-11T08:05:09.000Z,22.9
2019-05-11T08:15:09.000Z,22.97
2019-05-11T08:25:09.000Z,23.03
2019-05-11T08:35:09.000Z,23.06
2019-05-11T08:45:11.000Z,23.11
2019-05-11T08:55:09.000Z,23.19
2019-05-11T09:05:09.000Z,23.19
2019-05-11T09:15:09.000Z,23.21
2019-05-11T09:25:09.000Z,23.24
2019-05-11T09:35:09.000Z,23.28
2019-05-11T09:45:09.000Z,23.34
2019-05-11T09:55:09.000Z,23.36
2019-05-11T10:05:09.000Z,23.42
2019-05-11T10:15:09.000Z,23.44
2019-05-11T10:25:09.000Z,23.5
2019-05-11T10:45:09.000Z,23.55
2019-05-11T10:55:09.000Z,23.6
2019-05-11T11:05:09.000Z,23.62
2019-05-11T11:15:09.000Z,23.68
2019-05-11T11:25:09.000Z,23.68
2019-05-11T11:35:09.000Z,23.68
2019-05-11T11:45:10.000Z,23.69
2019-05-11T12:05:09.000Z,23.74
2019-05-11T12:15:09.000Z,23.75
2019-05-11T12:25:11.000Z,23.81
2019-05-11T12:35:10.000Z,23.84
2019-05-11T12:45:10.000Z,23.91
2019-05-11T12:55:09.000Z,23.93
2019-05-11T13:05:09.000Z,24
2019-05-11T13:15:09.000Z,24.03
2019-05-11T13:25:09.000Z,24.03
2019-05-11T13:35:09.000Z,24.07
2019-05-11T13:45:10.000Z,24.1
2019-05-11T13:55:09.000Z,24.11
2019-05-11T14:05:09.000Z,24.16
2019-05-11T14:15:09.000Z,24.15
2019-05-11T14:25:09.000Z,24.17
2019-05-11T14:35:10.000Z,24.15
2019-05-11T14:45:09.000Z,24.16
2019-05-11T14:55:10.000Z,24.19
2019-05-11T15:05:10.000Z,24.18
2019-05-11T15:15:10.000Z,24.19
2019-05-11T15:35:11.000Z,24.23
2019-05-11T15:45:10.000Z,24.21
2019-05-11T15:55:13.000Z,24.22
2019-05-11T16:05:10.000Z,24.21
2019-05-11T16:15:10.000Z,24.19
2019-05-11T16:25:10.000Z,24.21
2019-05-11T16:35:10.000Z,24.25
2019-05-11T16:45:10.000Z,24.28
2019-05-11T16:55:10.000Z,24.27
2019-05-11T17:05:10.000Z,24.3
2019-05-11T17:15:10.000Z,24.31
2019-05-11T17:25:10.000Z,24.33
2019-05-11T17:35:10.000Z,24.32
2019-05-11T17:45:10.000Z,24.28
2019-05-11T17:55:10.000Z,24.23
2019-05-11T18:05:10.000Z,24.2
2019-05-11T18:15:11.000Z,24.14
2019-05-11T18:25:12.000Z,24.09
2019-05-11T18:35:10.000Z,24.06
2019-05-11T18:45:11.000Z,24.01
2019-05-11T18:55:10.000Z,24.02
2019-05-11T19:05:10.000Z,23.97
2019-05-11T19:25:10.000Z,23.94
2019-05-11T19:35:10.000Z,23.91
2019-05-11T19:45:10.000Z,23.9
2019-05-11T19:55:10.000Z,23.87
2019-05-11T20:05:10.000Z,23.82
2019-05-11T20:15:14.000Z,23.84
2019-05-11T20:25:10.000Z,23.84
2019-05-11T20:35:13.000Z,23.84
2019-05-11T20:45:10.000Z,23.8
2019-05-11T20:55:10.000Z,23.8
2019-05-11T21:05:10.000Z,23.79
2019-05-11T21:15:10.000Z,23.78
2019-05-11T21:25:10.000Z,23.76
2019-05-11T21:35:10.000Z,23.72
2019-05-11T21:45:11.000Z,23.68
2019-05-11T21:55:13.000Z,23.66
2019-05-11T22:15:10.000Z,23.58
2019-05-11T22:25:10.000Z,23.51
2019-05-11T22:35:10.000Z,23.42
2019-05-11T22:45:10.000Z,23.37
2019-05-11T22:55:10.000Z,23.31
2019-05-11T23:05:10.000Z,23.24
2019-05-11T23:15:14.000Z,23.22
2019-05-11T23:25:11.000Z,23.18
2019-05-11T23:35:11.000Z,23.11
2019-05-11T23:45:11.000Z,23.08
2019-05-11T23:55:11.000Z,23.01
